Time;durP1;ratioP1;P1;durP2;ratioP2;P2;SDS_P1;SDS_P2;PMS_P1;PMS_P2;Temp;Humidity;BMP_temperature;BMP_pressure;BME280_temperature;BME280_humidity;BME280_pressure;Samples;Min_cycle;Max_cycle;Signal;HPM_P1;HPM_P2
2021/03/12 00:02:41;;;;;;;0.82;0.43;;;19.60;46.20;;;;;;6184380;28;20018;-66
2021/03/12 00:05:48;;;;;;;0.43;0.32;;;19.70;46.10;;;;;;6170897;28;20023;-66
2021/03/12 00:08:49;;;;;;;0.40;0.40;;;19.70;46.30;;;;;;6178592;28;20047;-65
2021/03/12 00:11:50;;;;;;;1.73;0.60;;;19.70;46.20;;;;;;6158079;28;20112;-66
2021/03/12 00:14:50;;;;;;;0.40;0.32;;;19.60;46.10;;;;;;6194692;28;20354;-65
2021/03/12 00:17:51;;;;;;;1.45;0.50;;;19.60;46.10;;;;;;6194100;28;20066;-66
2021/03/12 00:20:51;;;;;;;0.57;0.40;;;19.60;46.10;;;;;;6193117;28;20023;-65
2021/03/12 00:23:52;;;;;;;0.98;0.50;;;19.70;46.20;;;;;;6194552;28;20408;-66
2021/03/12 00:26:57;;;;;;;1.38;0.40;;;19.60;46.10;;;;;;6199386;28;20044;-65
2021/03/12 00:29:57;;;;;;;0.40;0.32;;;19.60;46.10;;;;;;6199157;28;20053;-65
2021/03/12 00:32:58;;;;;;;0.80;0.50;;;19.60;46.20;;;;;;6198769;28;20034;-65
2021/03/12 00:35:59;;;;;;;0.50;0.30;;;19.60;46.10;;;;;;6189409;28;20466;-65
2021/03/12 00:38:59;;;;;;;1.13;0.50;;;19.60;46.10;;;;;;6190511;28;20034;-66
2021/03/12 00:42:00;;;;;;;1.33;0.60;;;19.60;46.10;;;;;;6198975;28;20113;-65
2021/03/12 00:45:00;;;;;;;0.85;0.40;;;19.60;46.10;;;;;;6198865;28;20045;-65
2021/03/12 00:48:01;;;;;;;1.95;0.40;;;19.60;46.10;;;;;;6198471;28;20053;-65
2021/03/12 00:51:03;;;;;;;0.43;0.30;;;19.60;46.20;;;;;;6199202;28;20041;-65
2021/03/12 00:54:04;;;;;;;0.50;0.30;;;19.60;46.20;;;;;;6198387;28;20540;-66
2021/03/12 00:57:05;;;;;;;0.45;0.20;;;19.60;46.20;;;;;;6198925;28;20026;-66
2021/03/12 01:00:08;;;;;;;1.15;0.35;;;19.60;46.10;;;;;;6181987;28;20114;-66
2021/03/12 01:03:11;;;;;;;1.45;0.52;;;19.70;46.20;;;;;;6181520;28;20072;-65
2021/03/12 01:06:11;;;;;;;0.77;0.43;;;19.60;46.10;;;;;;6198566;28;20038;-65
2021/03/12 01:09:12;;;;;;;0.93;0.50;;;19.60;46.10;;;;;;6198788;28;20037;-66
2021/03/12 01:12:12;;;;;;;0.57;0.50;;;19.60;46.20;;;;;;6198280;28;20049;-66
2021/03/12 01:15:17;;;;;;;0.75;0.40;;;19.60;46.20;;;;;;6198001;28;20023;-65
2021/03/12 01:18:17;;;;;;;1.25;0.40;;;19.60;46.20;;;;;;6197987;28;20093;-66
2021/03/12 01:21:18;;;;;;;0.70;0.40;;;19.60;46.10;;;;;;6198290;28;20473;-66
2021/03/12 01:24:18;;;;;;;0.35;0.22;;;19.60;46.10;;;;;;6197933;28;20030;-66
2021/03/12 01:27:19;;;;;;;1.05;0.40;;;19.60;46.10;;;;;;6197864;28;20044;-66
2021/03/12 01:30:35;;;;;;;0.68;0.50;;;19.60;46.10;;;;;;6197603;28;20030;-65
2021/03/12 01:33:36;;;;;;;1.13;0.68;;;19.60;46.10;;;;;;6197715;28;20501;-65
2021/03/12 01:36:36;;;;;;;0.70;0.40;;;19.60;46.10;;;;;;6196854;28;20030;-66
2021/03/12 01:39:37;;;;;;;0.20;0.20;;;19.60;46.10;;;;;;6197249;28;20033;-66
2021/03/12 01:42:37;;;;;;;0.63;0.40;;;19.60;46.10;;;;;;6197481;28;20393;-66
2021/03/12 01:45:52;;;;;;;0.50;0.40;;;19.60;46.10;;;;;;6197193;28;20032;-65
2021/03/12 01:48:52;;;;;;;0.52;0.35;;;19.60;46.20;;;;;;6197159;28;20511;-66
2021/03/12 01:51:53;;;;;;;0.80;0.40;;;19.60;46.10;;;;;;6197207;28;20027;-65
2021/03/12 01:54:53;;;;;;;0.50;0.30;;;19.60;46.10;;;;;;6197209;28;20411;-65
2021/03/12 01:57:54;;;;;;;0.88;0.50;;;19.60;46.20;;;;;;6197321;28;20118;-66
2021/03/12 02:00:55;;;;;;;1.23;0.35;;;19.60;46.20;;;;;;6196884;28;20473;-66
2021/03/12 02:03:55;;;;;;;1.10;0.40;;;19.60;46.20;;;;;;6197068;28;20543;-65
2021/03/12 02:06:56;;;;;;;0.55;0.30;;;19.60;46.10;;;;;;6197041;28;20035;-65
2021/03/12 02:09:56;;;;;;;0.50;0.30;;;19.60;46.20;;;;;;6197066;28;20575;-65
2021/03/12 02:13:22;;;;;;;0.82;0.60;;;19.60;46.30;;;;;;6197024;28;20031;-65
2021/03/12 02:16:28;;;;;;;1.13;0.40;;;19.60;46.10;;;;;;6196853;28;20363;-66
2021/03/12 02:19:51;;;;;;;0.30;0.20;;;19.60;46.00;;;;;;6196649;28;20065;-65
2021/03/12 02:23:26;;;;;;;1.02;0.50;;;19.60;46.10;;;;;;6196504;28;20081;-65
2021/03/12 02:26:41;;;;;;;0.38;0.20;;;19.60;46.20;;;;;;6187835;28;20070;-65
2021/03/12 02:29:45;;;;;;;0.82;0.40;;;19.60;46.20;;;;;;6196383;28;20027;-65
2021/03/12 02:32:49;;;;;;;0.32;0.20;;;19.60;46.30;;;;;;6195539;28;20485;-65
2021/03/12 02:35:54;;;;;;;0.47;0.30;;;19.60;46.10;;;;;;6180592;28;20520;-66
2021/03/12 02:38:55;;;;;;;;;;;19.60;46.10;;;;;;6196669;28;20511;-66
2021/03/12 02:41:59;;;;;;;1.05;0.40;;;19.60;46.20;;;;;;6162938;28;19906;-65
2021/03/12 02:45:01;;;;;;;2.58;0.40;;;19.60;46.10;;;;;;6164681;28;20131;-65
2021/03/12 02:48:02;;;;;;;1.08;0.32;;;19.60;46.10;;;;;;6195692;28;20022;-66
2021/03/12 02:51:05;;;;;;;1.05;0.40;;;19.60;46.20;;;;;;6195778;28;20543;-66
2021/03/12 02:54:06;;;;;;;0.47;0.30;;;19.60;46.20;;;;;;6195970;28;20260;-65
2021/03/12 02:57:07;;;;;;;0.90;0.30;;;19.60;46.10;;;;;;6195653;28;20110;-65
2021/03/12 03:00:08;;;;;;;0.50;0.25;;;19.60;46.10;;;;;;6195918;28;20040;-65
2021/03/12 03:03:10;;;;;;;0.55;0.40;;;19.60;46.10;;;;;;6195728;28;20497;-66
2021/03/12 03:06:12;;;;;;;0.60;0.30;;;19.60;46.20;;;;;;6176043;28;20030;-66
2021/03/12 03:09:14;;;;;;;0.30;0.30;;;19.60;46.10;;;;;;6195559;28;20034;-66
2021/03/12 03:12:18;;;;;;;0.30;0.20;;;19.60;46.30;;;;;;6195346;28;20069;-66
2021/03/12 03:15:20;;;;;;;0.57;0.35;;;19.60;46.10;;;;;;6195429;28;20130;-66
2021/03/12 03:18:21;;;;;;;0.30;0.30;;;19.60;46.30;;;;;;6195233;28;20107;-65
2021/03/12 03:21:22;;;;;;;0.93;0.40;;;19.60;46.30;;;;;;6195286;28;20030;-65
2021/03/12 03:24:23;;;;;;;1.40;0.30;;;19.60;46.20;;;;;;6195407;28;20104;-66
2021/03/12 03:27:24;;;;;;;1.25;0.40;;;19.60;46.20;;;;;;6195049;28;20113;-66
2021/03/12 03:30:24;;;;;;;0.22;0.20;;;19.60;46.20;;;;;;6195071;28;20545;-66
2021/03/12 03:33:25;;;;;;;0.20;0.20;;;19.60;46.20;;;;;;6195107;28;20463;-66
2021/03/12 03:36:26;;;;;;;0.60;0.30;;;19.60;46.20;;;;;;6194938;28;20493;-66
2021/03/12 03:39:26;;;;;;;0.30;0.25;;;19.60;46.30;;;;;;6195658;28;20060;-66
2021/03/12 03:42:29;;;;;;;0.65;0.28;;;19.60;46.20;;;;;;6195204;28;20037;-66
2021/03/12 03:45:32;;;;;;;0.40;0.20;;;19.60;46.30;;;;;;6194830;28;20037;-66
2021/03/12 03:48:35;;;;;;;0.40;0.20;;;19.60;46.20;;;;;;6194889;28;20018;-65
2021/03/12 03:51:39;;;;;;;0.17;0.17;;;19.60;46.20;;;;;;6194722;28;20049;-65
2021/03/12 03:54:42;;;;;;;1.10;0.45;;;19.60;46.20;;;;;;6194041;28;20105;-66
2021/03/12 03:57:43;;;;;;;0.40;0.30;;;19.60;46.20;;;;;;6194854;28;20058;-66
2021/03/12 04:00:45;;;;;;;0.57;0.20;;;19.60;46.20;;;;;;6203415;28;20339;-66
2021/03/12 04:03:46;;;;;;;0.75;0.38;;;19.60;46.20;;;;;;6202744;28;20501;-65
2021/03/12 04:06:47;;;;;;;0.20;0.20;;;19.60;46.20;;;;;;6202692;28;20389;-66
2021/03/12 04:09:49;;;;;;;0.50;0.30;;;19.60;46.20;;;;;;6202444;28;20062;-65
2021/03/12 04:12:50;;;;;;;0.80;0.30;;;19.60;46.30;;;;;;6202426;28;20038;-65
2021/03/12 04:15:52;;;;;;;0.55;0.30;;;19.60;46.10;;;;;;6202848;28;20142;-66
2021/03/12 04:18:53;;;;;;;0.50;0.32;;;19.60;46.20;;;;;;6202243;28;20425;-66
2021/03/12 04:21:54;;;;;;;0.75;0.40;;;19.60;46.20;;;;;;6202407;28;20033;-66
2021/03/12 04:24:55;;;;;;;0.20;0.20;;;19.60;46.30;;;;;;6202378;28;20022;-66
2021/03/12 04:27:56;;;;;;;0.60;0.30;;;19.60;46.20;;;;;;6182002;28;20097;-66
2021/03/12 04:30:57;;;;;;;0.60;0.22;;;19.60;46.30;;;;;;6154257;28;20045;-65
2021/03/12 04:33:58;;;;;;;0.30;0.20;;;19.60;46.20;;;;;;6161539;28;20521;-65
2021/03/12 04:36:59;;;;;;;0.35;0.22;;;19.60;46.30;;;;;;6163149;28;20031;-65
2021/03/12 04:40:01;;;;;;;0.47;0.30;;;19.60;46.30;;;;;;6202004;28;20026;-65
2021/03/12 04:43:03;;;;;;;0.28;0.20;;;19.60;46.20;;;;;;6202251;28;20026;-67
2021/03/12 04:46:03;;;;;;;0.63;0.32;;;19.60;46.10;;;;;;6156903;28;20107;-65
2021/03/12 04:49:07;;;;;;;0.43;0.30;;;19.60;46.30;;;;;;6194708;28;20031;-66
2021/03/12 04:52:08;;;;;;;0.20;0.20;;;19.60;46.20;;;;;;6201990;28;20101;-65
2021/03/12 04:55:09;;;;;;;0.38;0.32;;;19.60;46.20;;;;;;6202364;28;20081;-66
2021/03/12 04:58:10;;;;;;;0.57;0.22;;;19.60;46.30;;;;;;6201889;28;20101;-66
2021/03/12 05:01:12;;;;;;;0.50;0.20;;;19.60;46.10;;;;;;6202010;28;20042;-65
2021/03/12 05:04:13;;;;;;;0.43;0.30;;;19.60;46.20;;;;;;6201894;28;20129;-66
2021/03/12 05:07:13;;;;;;;0.30;0.22;;;19.60;46.20;;;;;;6201797;28;20036;-66
2021/03/12 05:10:14;;;;;;;0.30;0.30;;;19.60;46.10;;;;;;6199186;28;20058;-65
2021/03/12 05:13:14;;;;;;;0.20;0.20;;;19.60;46.00;;;;;;6196788;28;20076;-66
2021/03/12 05:16:15;;;;;;;0.20;0.20;;;19.60;46.00;;;;;;6186771;28;20051;-66
2021/03/12 05:19:15;;;;;;;0.93;0.40;;;19.60;46.10;;;;;;6184355;28;20432;-65
2021/03/12 05:22:16;;;;;;;0.63;0.20;;;19.60;46.10;;;;;;6198084;28;20116;-65
2021/03/12 05:25:17;;;;;;;1.25;0.40;;;19.60;46.10;;;;;;6198081;28;20379;-65
2021/03/12 05:28:17;;;;;;;1.65;0.52;;;19.60;46.20;;;;;;6172412;28;20521;-65
2021/03/12 05:31:18;;;;;;;0.85;0.40;;;19.60;46.10;;;;;;6197714;28;20103;-66
2021/03/12 05:34:19;;;;;;;0.85;0.30;;;19.60;46.10;;;;;;6197766;28;20046;-65
2021/03/12 05:37:19;;;;;;;0.60;0.25;;;19.60;46.20;;;;;;6198136;28;20038;-66
2021/03/12 05:40:20;;;;;;;0.52;0.47;;;19.60;46.10;;;;;;6198039;28;20027;-66
2021/03/12 05:43:21;;;;;;;0.65;0.32;;;19.60;46.10;;;;;;6197929;28;20018;-66
2021/03/12 05:46:22;;;;;;;0.28;0.20;;;19.60;46.20;;;;;;6197720;28;20033;-66
2021/03/12 05:49:23;;;;;;;0.60;0.28;;;19.60;46.10;;;;;;6197468;28;20026;-65
2021/03/12 05:52:24;;;;;;;1.10;0.30;;;19.60;46.00;;;;;;6157512;28;20122;-66
2021/03/12 05:55:25;;;;;;;0.30;0.30;;;19.60;46.10;;;;;;6193126;28;20054;-65
2021/03/12 05:58:25;;;;;;;0.43;0.25;;;19.60;46.30;;;;;;6197162;28;20034;-66
2021/03/12 06:01:26;;;;;;;0.28;0.28;;;19.60;46.10;;;;;;6169099;28;20038;-66
2021/03/12 06:04:27;;;;;;;0.68;0.32;;;19.60;46.30;;;;;;6167362;28;20034;-66
2021/03/12 06:07:27;;;;;;;1.13;0.32;;;19.60;46.30;;;;;;6174899;28;20030;-65
2021/03/12 06:10:28;;;;;;;1.90;0.40;;;19.60;46.30;;;;;;6179229;28;20031;-66
2021/03/12 06:13:28;;;;;;;1.73;0.50;;;19.50;45.80;;;;;;6182520;28;20038;-65
2021/03/12 06:16:30;;;;;;;2.50;0.70;;;19.50;45.20;;;;;;6195730;28;20049;-65
2021/03/12 06:19:31;;;;;;;4.78;1.00;;;19.50;44.40;;;;;;6190435;28;20292;-66
2021/03/12 06:22:32;;;;;;;2.00;0.70;;;19.50;44.20;;;;;;6194867;28;20499;-65
2021/03/12 06:25:33;;;;;;;5.80;0.80;;;19.50;44.00;;;;;;6195619;28;20303;-66
2021/03/12 06:28:33;;;;;;;1.92;0.40;;;19.50;43.90;;;;;;6195793;28;20027;-66
2021/03/12 06:31:35;;;;;;;4.88;1.13;;;19.40;44.30;;;;;;6195414;28;20101;-66
2021/03/12 06:34:35;;;;;;;2.92;0.98;;;19.40;43.90;;;;;;6194935;28;20666;-66
2021/03/12 06:37:36;;;;;;;5.95;1.05;;;19.40;43.60;;;;;;6173585;28;20023;-66
2021/03/12 06:40:38;;;;;;;1.60;0.73;;;19.40;43.60;;;;;;6185744;28;20033;-66
2021/03/12 06:43:38;;;;;;;5.07;1.33;;;19.40;43.20;;;;;;6195090;28;20080;-66
2021/03/12 06:46:45;;;;;;;2.28;0.90;;;19.40;43.10;;;;;;6194786;28;20022;-65
2021/03/12 06:49:56;;;;;;;4.50;1.08;;;19.40;42.80;;;;;;6186558;28;20065;-65
2021/03/12 06:52:57;;;;;;;3.28;0.98;;;19.40;41.90;;;;;;6193178;28;20397;-66
2021/03/12 06:56:04;;;;;;;2.45;0.90;;;19.40;41.60;;;;;;6189728;28;20089;-66
2021/03/12 06:59:04;;;;;;;2.33;0.90;;;19.50;41.90;;;;;;6169476;28;20027;-66
2021/03/12 07:02:08;;;;;;;3.80;1.00;;;19.40;42.10;;;;;;6166211;28;20671;-66
2021/03/12 07:05:09;;;;;;;8.32;0.80;;;19.50;42.40;;;;;;6180977;28;20033;-65
2021/03/12 07:08:40;;;;;;;6.57;0.68;;;19.50;42.60;;;;;;6189716;28;20073;-66
2021/03/12 07:11:41;;;;;;;3.85;0.80;;;19.50;42.80;;;;;;6185331;28;20077;-66
2021/03/12 07:14:41;;;;;;;3.95;0.63;;;19.50;43.10;;;;;;6183666;28;21619;-65
2021/03/12 07:17:42;;;;;;;2.17;0.57;;;19.50;43.20;;;;;;6195401;28;20062;-66
2021/03/12 07:20:43;;;;;;;3.63;0.70;;;19.50;43.40;;;;;;6195785;28;20023;-66
2021/03/12 07:23:47;;;;;;;1.67;0.60;;;19.50;43.50;;;;;;6184141;28;20488;-65
2021/03/12 07:26:55;;;;;;;8.63;1.02;;;19.50;43.60;;;;;;6195399;28;20029;-66
2021/03/12 07:29:59;;;;;;;1.35;0.50;;;19.50;43.60;;;;;;6184287;28;20026;-66
2021/03/12 07:33:01;;;;;;;2.80;0.60;;;19.50;43.70;;;;;;6194541;28;20068;-66
2021/03/12 07:36:07;;;;;;;4.40;0.63;;;19.50;43.80;;;;;;6186239;28;20512;-66
2021/03/12 07:39:09;;;;;;;2.90;0.57;;;19.50;44.20;;;;;;6176004;28;20031;-65
2021/03/12 07:42:10;;;;;;;2.75;0.60;;;19.50;44.30;;;;;;6173827;28;20033;-66
2021/03/12 07:45:12;;;;;;;3.97;0.80;;;19.50;44.10;;;;;;6194932;28;20093;-65
2021/03/12 07:48:14;;;;;;;2.55;0.88;;;19.50;44.10;;;;;;6192174;28;20030;-65
2021/03/12 07:51:15;;;;;;;1.80;0.60;;;19.50;44.20;;;;;;6185518;28;20100;-65
2021/03/12 07:54:16;;;;;;;2.58;0.73;;;19.50;44.30;;;;;;6166464;28;20050;-65
2021/03/12 07:57:41;;;;;;;1.85;0.80;;;19.50;44.30;;;;;;6173737;28;20482;-65
2021/03/12 08:00:56;;;;;;;1.20;0.65;;;19.50;44.40;;;;;;6181137;28;20034;-66
2021/03/12 08:03:57;;;;;;;;;;;19.50;44.40;;;;;;6183605;28;20093;-64
2021/03/12 08:06:59;;;;;;;2.72;0.60;;;19.60;44.60;;;;;;6194150;28;20236;-65
2021/03/12 08:10:16;;;;;;;14.13;1.13;;;19.60;44.70;;;;;;6171329;28;20446;-65
2021/03/12 08:13:28;;;;;;;9.52;0.90;;;19.60;44.60;;;;;;6194257;28;20034;-65
2021/03/12 08:16:29;;;;;;;13.50;1.05;;;19.60;44.60;;;;;;6194751;28;20051;-65
2021/03/12 08:19:34;;;;;;;13.52;0.98;;;19.60;44.80;;;;;;6188547;28;20042;-64
2021/03/12 08:22:43;;;;;;;8.95;1.17;;;19.60;44.90;;;;;;6174968;28;20082;-65
2021/03/12 08:25:45;;;;;;;6.47;0.80;;;19.60;44.90;;;;;;6171346;28;20034;-65
2021/03/12 08:28:45;;;;;;;8.43;1.00;;;19.60;44.90;;;;;;6185193;28;20077;-64
2021/03/12 08:31:46;;;;;;;8.23;1.17;;;19.60;44.90;;;;;;6194651;28;20389;-65
2021/03/12 08:34:46;;;;;;;4.28;0.85;;;19.60;45.00;;;;;;6167667;28;20650;-65
2021/03/12 08:37:47;;;;;;;4.47;0.63;;;19.60;44.80;;;;;;6176989;28;20032;-65
2021/03/12 08:41:00;;;;;;;7.80;1.00;;;19.60;44.90;;;;;;6171647;28;20031;-65
2021/03/12 08:44:01;;;;;;;5.13;0.60;;;19.60;45.00;;;;;;6178572;28;20030;-65
2021/03/12 08:47:01;;;;;;;2.25;0.60;;;19.60;44.90;;;;;;6183950;28;20296;-67
2021/03/12 08:50:02;;;;;;;2.08;0.60;;;19.60;44.90;;;;;;6158745;28;20042;-65
2021/03/12 08:53:06;;;;;;;2.88;0.50;;;19.60;45.00;;;;;;6169512;28;20085;-65
2021/03/12 08:56:09;;;;;;;4.00;0.60;;;19.60;45.00;;;;;;6176087;28;20035;-65
2021/03/12 08:59:09;;;;;;;4.65;1.02;;;19.60;45.00;;;;;;6198971;28;20049;-65
2021/03/12 09:02:23;;;;;;;2.28;0.70;;;19.60;45.10;;;;;;6198539;28;20133;-65
2021/03/12 09:05:26;;;;;;;2.60;0.60;;;19.60;45.00;;;;;;6190639;28;20115;-65
2021/03/12 09:08:28;;;;;;;4.18;0.60;;;19.60;45.10;;;;;;6182752;28;20452;-64
2021/03/12 09:11:28;;;;;;;2.05;0.70;;;19.60;45.20;;;;;;6199343;28;20046;-64
2021/03/12 09:14:29;;;;;;;9.70;0.80;;;19.60;45.10;;;;;;6177372;28;20117;-65
2021/03/12 09:17:37;;;;;;;5.78;0.52;;;19.60;45.30;;;;;;6181831;28;20577;-64
2021/03/12 09:20:38;;;;;;;2.63;0.90;;;19.60;45.40;;;;;;6180406;28;20131;-65
2021/03/12 09:23:47;;;;;;;2.67;0.80;;;19.60;45.30;;;;;;6189805;28;20355;-65
2021/03/12 09:26:47;;;;;;;1.98;0.60;;;19.60;45.40;;;;;;6199894;28;20030;-65
2021/03/12 09:29:47;;;;;;;3.47;0.68;;;19.60;45.40;;;;;;6198141;28;20037;-65
2021/03/12 09:32:49;;;;;;;3.88;0.90;;;19.60;45.40;;;;;;6181452;28;20096;-65
2021/03/12 09:35:49;;;;;;;2.55;0.55;;;19.60;45.60;;;;;;6188409;28;20034;-65
2021/03/12 09:38:52;;;;;;;1.33;0.60;;;19.60;45.50;;;;;;6193147;28;20030;-64
2021/03/12 09:41:53;;;;;;;2.20;0.50;;;19.60;45.40;;;;;;6174741;28;20025;-64
2021/03/12 09:44:54;;;;;;;4.95;0.80;;;19.60;45.50;;;;;;6196522;28;20089;-64
2021/03/12 09:47:54;;;;;;;5.15;0.50;;;19.60;45.50;;;;;;6165869;28;20096;-65
2021/03/12 09:50:55;;;;;;;3.92;0.55;;;19.60;45.50;;;;;;6198569;28;20030;-65
2021/03/12 09:53:56;;;;;;;1.42;0.52;;;19.60;45.60;;;;;;6197860;28;20039;-65
2021/03/12 09:56:57;;;;;;;4.30;0.63;;;19.60;45.60;;;;;;6185201;28;20031;-65
2021/03/12 09:59:58;;;;;;;3.17;0.63;;;19.60;45.60;;;;;;6174959;28;20043;-64
2021/03/12 10:02:59;;;;;;;1.50;0.60;;;19.60;45.60;;;;;;6178356;28;20034;-64
2021/03/12 10:06:08;;;;;;;0.85;0.40;;;19.60;45.60;;;;;;6191764;28;20031;-65
2021/03/12 10:09:09;;;;;;;2.15;0.60;;;19.60;45.60;;;;;;6186421;28;20034;-64
2021/03/12 10:12:24;;;;;;;4.00;0.68;;;19.60;45.80;;;;;;6194054;28;20374;-65
2021/03/12 10:15:32;;;;;;;8.40;1.17;;;19.60;44.80;;;;;;6181275;28;20055;-64
2021/03/12 10:18:33;;;;;;;6.50;0.80;;;19.60;44.00;;;;;;6176371;28;20035;-65
2021/03/12 10:21:33;;;;;;;2.67;0.75;;;19.60;44.30;;;;;;6173946;28;20358;-65
2021/03/12 10:24:34;;;;;;;2.72;0.68;;;19.60;44.60;;;;;;6187260;28;20030;-65
2021/03/12 10:27:41;;;;;;;3.47;0.70;;;19.60;44.70;;;;;;6197780;28;20105;-65
2021/03/12 10:30:48;;;;;;;1.95;0.77;;;19.60;45.10;;;;;;6197689;28;20037;-65
2021/03/12 10:33:50;;;;;;;2.88;0.77;;;19.60;44.90;;;;;;6185396;28;20571;-65
2021/03/12 10:37:13;;;;;;;4.30;0.82;;;19.60;44.90;;;;;;6197571;28;20029;-65
2021/03/12 10:40:14;;;;;;;3.20;0.85;;;19.60;44.80;;;;;;6197353;28;20053;-65
2021/03/12 10:43:27;;;;;;;3.53;0.80;;;19.60;45.00;;;;;;6177024;28;20023;-64
2021/03/12 10:46:28;;;;;;;2.50;0.80;;;19.60;44.70;;;;;;6176828;28;20115;-64
2021/03/12 10:49:29;;;;;;;2.67;0.70;;;19.60;44.90;;;;;;6182731;28;20019;-64
2021/03/12 10:52:31;;;;;;;1.92;0.85;;;19.60;44.90;;;;;;6196721;28;20088;-65
2021/03/12 10:55:33;;;;;;;2.25;0.70;;;19.60;44.80;;;;;;6196312;28;20018;-65
2021/03/12 10:58:36;;;;;;;2.03;0.70;;;19.60;45.10;;;;;;6183187;28;20034;-64
2021/03/12 11:01:41;;;;;;;1.23;0.50;;;19.60;45.00;;;;;;6197425;28;20516;-65
2021/03/12 11:04:42;;;;;;;3.10;0.80;;;19.60;45.00;;;;;;6197330;28;20022;-64
2021/03/12 11:07:46;;;;;;;2.03;0.80;;;19.60;44.80;;;;;;6196296;28;20050;-65
2021/03/12 11:10:46;;;;;;;1.65;0.63;;;19.60;44.90;;;;;;6196787;28;20507;-64
2021/03/12 11:13:47;;;;;;;3.28;0.85;;;19.60;44.90;;;;;;6196548;28;20026;-64
2021/03/12 11:16:48;;;;;;;1.45;0.68;;;19.60;45.00;;;;;;6196564;28;20101;-65
2021/03/12 11:19:50;;;;;;;2.40;0.70;;;19.60;45.00;;;;;;6197338;28;20034;-65
2021/03/12 11:22:51;;;;;;;2.85;0.70;;;19.60;44.90;;;;;;6196711;28;20022;-65
2021/03/12 11:25:55;;;;;;;1.95;0.90;;;19.60;44.90;;;;;;6195739;28;20054;-65
2021/03/12 11:28:56;;;;;;;2.17;0.80;;;19.60;44.90;;;;;;6195871;28;20037;-65
2021/03/12 11:31:59;;;;;;;3.25;0.98;;;19.60;44.70;;;;;;6195263;28;20386;-64
2021/03/12 11:35:00;;;;;;;2.53;0.70;;;19.60;44.90;;;;;;6187468;28;20061;-65
2021/03/12 11:38:00;;;;;;;1.75;0.60;;;19.60;45.00;;;;;;6184427;28;20038;-64
2021/03/12 11:41:01;;;;;;;7.07;0.70;;;19.60;45.10;;;;;;6195374;28;20564;-64
2021/03/12 11:44:02;;;;;;;1.55;0.50;;;19.60;45.10;;;;;;6195155;28;20065;-64
2021/03/12 11:47:02;;;;;;;1.88;0.70;;;19.60;45.20;;;;;;6194941;28;20030;-65
2021/03/12 11:50:06;;;;;;;3.17;0.90;;;19.60;45.30;;;;;;6192200;28;20069;-65
2021/03/12 11:53:06;;;;;;;3.83;1.00;;;19.60;45.20;;;;;;6198095;28;20026;-64
2021/03/12 11:56:07;;;;;;;1.15;0.50;;;19.60;45.30;;;;;;6180069;28;20377;-64
2021/03/12 11:59:07;;;;;;;0.95;0.70;;;19.60;45.40;;;;;;6190797;28;20035;-65
2021/03/12 12:02:10;;;;;;;1.45;0.77;;;19.60;45.40;;;;;;6194862;28;20026;-65
2021/03/12 12:05:12;;;;;;;1.42;0.73;;;19.60;45.40;;;;;;6195610;28;20022;-64
2021/03/12 12:08:12;;;;;;;1.83;0.40;;;19.60;45.40;;;;;;6195939;28;20026;-65
2021/03/12 12:11:13;;;;;;;2.72;0.65;;;19.70;45.50;;;;;;6195603;28;20096;-64
2021/03/12 12:14:14;;;;;;;2.00;0.75;;;19.60;45.50;;;;;;6194824;28;20046;-65
2021/03/12 12:17:14;;;;;;;3.63;0.82;;;19.60;45.50;;;;;;6194102;28;20145;-64
2021/03/12 12:20:16;;;;;;;2.33;0.85;;;19.60;45.50;;;;;;6197461;28;20026;-65
2021/03/12 12:23:17;;;;;;;2.00;0.80;;;19.60;45.60;;;;;;6200476;28;20038;-66
2021/03/12 12:26:17;;;;;;;4.20;0.77;;;19.70;45.70;;;;;;6186967;28;20436;-65
2021/03/12 12:29:18;;;;;;;4.22;0.93;;;19.70;45.60;;;;;;6200465;28;20073;-65
2021/03/12 12:32:19;;;;;;;2.85;0.70;;;19.70;45.20;;;;;;6200161;28;20026;-65
2021/03/12 12:35:19;;;;;;;3.50;0.80;;;19.70;45.00;;;;;;6183370;28;20038;-64
2021/03/12 12:38:20;;;;;;;3.78;0.65;;;19.80;44.90;;;;;;6190835;28;20618;-65
2021/03/12 12:41:21;;;;;;;3.28;0.80;;;19.80;45.20;;;;;;6198968;28;20068;-65
2021/03/12 12:44:21;;;;;;;2.08;0.60;;;19.80;45.30;;;;;;6200076;28;20026;-64
2021/03/12 12:47:22;;;;;;;3.13;0.85;;;19.80;45.40;;;;;;6186067;28;20113;-64
2021/03/12 12:50:22;;;;;;;2.35;0.70;;;19.70;45.40;;;;;;6199654;28;20026;-64
2021/03/12 12:53:23;;;;;;;2.95;0.80;;;19.70;45.40;;;;;;6197024;28;20477;-64
2021/03/12 12:56:24;;;;;;;1.83;0.60;;;19.70;45.50;;;;;;6182292;28;20041;-64
2021/03/12 12:59:25;;;;;;;1.75;0.85;;;19.70;45.40;;;;;;6200132;28;20018;-64
2021/03/12 13:02:26;;;;;;;3.83;0.70;;;19.70;45.50;;;;;;6199540;28;20429;-65
2021/03/12 13:05:26;;;;;;;2.03;0.80;;;19.70;45.60;;;;;;6198543;28;20022;-64
2021/03/12 13:08:27;;;;;;;2.35;0.60;;;19.70;45.60;;;;;;6187801;28;20474;-64
2021/03/12 13:11:27;;;;;;;1.33;0.73;;;19.70;45.60;;;;;;6198794;28;20030;-64
2021/03/12 13:14:28;;;;;;;2.40;0.73;;;19.70;45.60;;;;;;6198678;28;20481;-64
2021/03/12 13:17:28;;;;;;;3.40;0.60;;;19.70;45.70;;;;;;6197887;28;20053;-64
2021/03/12 13:20:31;;;;;;;2.47;0.93;;;19.70;45.60;;;;;;6194403;28;20397;-64
2021/03/12 13:23:37;;;;;;;0.80;0.50;;;19.70;45.70;;;;;;6199262;28;20030;-64
2021/03/12 13:26:38;;;;;;;3.00;0.70;;;19.70;45.70;;;;;;6199274;28;20030;-64
2021/03/12 13:29:38;;;;;;;2.10;0.88;;;19.70;45.30;;;;;;6198367;28;20117;-64
2021/03/12 13:32:40;;;;;;;1.52;0.60;;;19.70;44.70;;;;;;6172680;28;20034;-64
2021/03/12 13:35:41;;;;;;;3.15;0.90;;;19.70;45.50;;;;;;6186290;28;20390;-65
2021/03/12 13:38:41;;;;;;;2.08;0.90;;;19.70;45.40;;;;;;6187555;28;20027;-65
2021/03/12 13:41:42;;;;;;;1.88;0.70;;;19.70;45.40;;;;;;6187326;28;20105;-64
2021/03/12 13:44:43;;;;;;;1.45;0.80;;;19.70;45.50;;;;;;6182569;28;20374;-64
2021/03/12 13:47:43;;;;;;;2.42;0.65;;;19.70;45.50;;;;;;6183942;28;20477;-64
2021/03/12 13:50:45;;;;;;;4.18;0.50;;;19.70;45.50;;;;;;6198429;28;20018;-64
2021/03/12 13:53:45;;;;;;;2.83;0.90;;;19.70;45.60;;;;;;6180460;28;20058;-65
2021/03/12 13:56:46;;;;;;;4.50;0.88;;;19.70;45.60;;;;;;6181791;28;20073;-64
2021/03/12 13:59:47;;;;;;;1.88;0.63;;;19.70;45.60;;;;;;6178440;28;20466;-65
2021/03/12 14:02:50;;;;;;;2.53;0.75;;;19.70;45.60;;;;;;6164563;28;20074;-64
2021/03/12 14:05:50;;;;;;;1.13;0.50;;;19.70;45.40;;;;;;6188899;28;20469;-64
2021/03/12 14:08:51;;;;;;;2.47;0.75;;;19.70;45.60;;;;;;6192829;28;20085;-64
2021/03/12 14:11:51;;;;;;;2.58;0.70;;;19.70;45.50;;;;;;6188824;28;20446;-64
2021/03/12 14:14:52;;;;;;;1.35;0.52;;;19.70;45.30;;;;;;6181593;28;20041;-64
2021/03/12 14:17:52;;;;;;;2.03;0.77;;;19.70;45.60;;;;;;6186886;28;20046;-64
2021/03/12 14:20:53;;;;;;;0.88;0.43;;;19.70;45.60;;;;;;6176691;28;20089;-64
2021/03/12 14:23:54;;;;;;;2.75;0.80;;;19.70;46.10;;;;;;6186619;28;20417;-63
2021/03/12 14:26:54;;;;;;;1.90;0.75;;;19.60;45.60;;;;;;6184358;28;20141;-64
2021/03/12 14:29:55;;;;;;;2.38;0.93;;;19.70;45.70;;;;;;6192063;28;20033;-64
2021/03/12 14:32:56;;;;;;;2.88;0.75;;;19.70;45.80;;;;;;6186169;28;20062;-64
2021/03/12 14:35:56;;;;;;;2.88;0.88;;;19.60;45.70;;;;;;6196324;28;20077;-64
2021/03/12 14:38:58;;;;;;;1.35;0.63;;;19.60;45.60;;;;;;6195040;28;20571;-65
2021/03/12 14:41:59;;;;;;;1.90;0.70;;;19.70;45.80;;;;;;6182446;28;20057;-65
2021/03/12 14:45:00;;;;;;;1.23;0.50;;;19.70;45.70;;;;;;6196164;28;20053;-65
2021/03/12 14:48:00;;;;;;;4.28;0.60;;;19.60;45.70;;;;;;6188741;28;20385;-64
2021/03/12 14:51:01;;;;;;;2.45;0.60;;;19.70;45.70;;;;;;6185822;28;20026;-64
2021/03/12 14:54:03;;;;;;;1.58;0.60;;;19.70;45.80;;;;;;6177913;28;20385;-65
2021/03/12 14:57:04;;;;;;;0.90;0.40;;;19.60;45.70;;;;;;6191012;28;20037;-64
2021/03/12 15:00:05;;;;;;;2.47;0.63;;;19.60;46.40;;;;;;6176907;28;20038;-64
2021/03/12 15:03:06;;;;;;;1.73;0.70;;;19.70;45.60;;;;;;6172930;28;20047;-64
2021/03/12 15:06:07;;;;;;;2.05;0.88;;;19.60;45.60;;;;;;6195519;28;20115;-63
2021/03/12 15:09:07;;;;;;;4.25;0.98;;;19.60;44.00;;;;;;6193562;28;20022;-64
2021/03/12 15:12:09;;;;;;;2.63;0.90;;;19.60;43.10;;;;;;6188697;28;20045;-64
2021/03/12 15:15:11;;;;;;;4.85;1.20;;;19.60;42.60;;;;;;6189233;28;20027;-64
2021/03/12 15:18:12;;;;;;;5.05;1.23;;;19.60;42.30;;;;;;6190604;28;20140;-64
2021/03/12 15:21:12;;;;;;;8.98;1.38;;;19.60;42.10;;;;;;6194302;28;20038;-64
2021/03/12 15:24:13;;;;;;;5.47;1.98;;;19.50;41.50;;;;;;6189796;28;20054;-64
2021/03/12 15:27:13;;;;;;;3.03;1.58;;;19.50;41.20;;;;;;6176429;28;20037;-64
2021/03/12 15:30:14;;;;;;;5.75;1.30;;;19.50;41.10;;;;;;6186814;28;20034;-65
2021/03/12 15:33:15;;;;;;;5.65;2.08;;;19.50;40.40;;;;;;6193598;28;20027;-64
2021/03/12 15:36:15;;;;;;;6.88;1.90;;;19.50;39.80;;;;;;6178558;28;20474;-64
2021/03/12 15:39:16;;;;;;;6.57;1.83;;;19.50;39.40;;;;;;6195736;28;20034;-64
2021/03/12 15:42:16;;;;;;;6.63;1.60;;;19.50;39.20;;;;;;6195064;28;20631;-64
2021/03/12 15:45:18;;;;;;;5.00;1.80;;;19.50;38.60;;;;;;6194200;28;20478;-65
2021/03/12 15:48:19;;;;;;;9.43;1.67;;;19.50;38.30;;;;;;6194950;28;20022;-65
2021/03/12 15:51:20;;;;;;;8.68;1.88;;;19.50;38.20;;;;;;6194605;28;20042;-64